createdAt,value
2019-03-01T00:02:58.269Z,10.03
2019-03-01T00:06:22.463Z,9.73
2019-03-01T00:09:51.987Z,7.27
2019-03-01T00:13:33.280Z,10.60
2019-03-01T00:17:26.726Z,8.57
2019-03-01T00:20:51.781Z,10.20
2019-03-01T00:24:28.266Z,9.93
2019-03-01T00:28:03.705Z,11.57
2019-03-01T00:31:44.136Z,11.53
2019-03-01T00:35:17.828Z,6.43
2019-03-01T00:38:58.965Z,11.43
2019-03-01T00:42:35.705Z,6.97
2019-03-01T00:45:40.020Z,13.10
2019-03-01T00:48:44.330Z,11.00
2019-03-01T00:51:48.683Z,7.07
2019-03-01T00:54:52.958Z,8.90
2019-03-01T00:57:57.255Z,8.47
2019-03-01T01:01:01.565Z,8.13
2019-03-01T01:04:05.881Z,8.00
2019-03-01T01:07:10.198Z,6.47
2019-03-01T01:10:14.623Z,9.27
2019-03-01T01:13:18.921Z,6.37
2019-03-01T01:16:24.760Z,4.50
2019-03-01T01:19:30.500Z,9.63
2019-03-01T01:22:34.770Z,6.93
2019-03-01T01:25:39.153Z,6.90
2019-03-01T01:28:45.167Z,4.00
2019-03-01T01:31:49.535Z,5.60
2019-03-01T01:34:53.812Z,10.03
2019-03-01T01:37:58.078Z,10.77
2019-03-01T01:41:02.345Z,10.13
2019-03-01T01:44:07.097Z,12.70
2019-03-01T01:47:11.384Z,7.33
2019-03-01T01:50:15.653Z,6.03
2019-03-01T01:53:19.938Z,7.90
2019-03-01T01:56:26.716Z,5.00
2019-03-01T01:59:31.214Z,6.40
2019-03-01T02:02:35.482Z,7.27
2019-03-01T02:05:40.074Z,5.17
2019-03-01T02:08:44.570Z,7.77
2019-03-01T02:11:48.838Z,7.20
2019-03-01T02:14:53.123Z,5.93
2019-03-01T02:17:57.412Z,8.53
2019-03-01T02:21:01.664Z,8.53
2019-03-01T02:24:06.040Z,10.47
2019-03-01T02:27:30.845Z,7.53
2019-03-01T02:30:35.440Z,6.27
2019-03-01T02:33:39.699Z,4.93
2019-03-01T02:36:45.095Z,5.27
2019-03-01T02:39:49.402Z,6.57
2019-03-01T02:42:53.722Z,10.10
2019-03-01T02:45:59.272Z,5.73
2019-03-01T02:49:03.544Z,15.13
2019-03-01T02:52:07.915Z,9.00
2019-03-01T02:55:13.280Z,6.23
2019-03-01T02:58:17.542Z,8.00
2019-03-01T03:01:21.820Z,10.07
2019-03-01T03:04:26.102Z,9.00
2019-03-01T03:07:45.272Z,12.80
2019-03-01T03:10:49.730Z,6.27
2019-03-01T03:13:54.000Z,7.10
2019-03-01T03:16:58.362Z,7.97
2019-03-01T03:20:02.644Z,10.50
2019-03-01T03:23:06.918Z,6.17
2019-03-01T03:26:11.201Z,7.00
2019-03-01T03:29:15.687Z,5.00
2019-03-01T03:32:19.992Z,11.80
2019-03-01T03:35:24.306Z,7.50
2019-03-01T03:38:28.590Z,6.57
2019-03-01T03:41:32.865Z,10.87
2019-03-01T03:44:37.174Z,10.53
2019-03-01T03:47:41.578Z,6.77
2019-03-01T03:50:47.936Z,8.63
2019-03-01T03:53:52.344Z,6.20
2019-03-01T03:56:56.721Z,8.03
2019-03-01T04:00:00.990Z,6.77
2019-03-01T04:03:05.698Z,15.30
2019-03-01T04:06:13.142Z,7.20
2019-03-01T04:09:17.419Z,5.37
2019-03-01T04:12:21.827Z,7.00
2019-03-01T04:15:26.177Z,9.87
2019-03-01T04:18:30.415Z,6.97
2019-03-01T04:21:34.706Z,4.80
2019-03-01T04:24:39.082Z,10.83
2019-03-01T04:27:43.365Z,6.53
2019-03-01T04:30:47.645Z,9.47
2019-03-01T04:33:54.689Z,5.93
2019-03-01T04:36:59.066Z,12.23
2019-03-01T04:40:03.600Z,3.87
2019-03-01T04:43:07.929Z,6.03
2019-03-01T04:46:12.223Z,6.13
2019-03-01T04:49:16.504Z,7.20
2019-03-01T04:52:37.710Z,10.03
2019-03-01T04:55:42.058Z,7.10
2019-03-01T04:58:46.427Z,8.57
2019-03-01T05:01:50.717Z,10.90
2019-03-01T05:04:54.988Z,6.77
2019-03-01T05:07:59.367Z,6.60
2019-03-01T05:11:06.730Z,5.47
2019-03-01T05:14:10.996Z,7.17
2019-03-01T05:17:15.672Z,4.10
2019-03-01T05:20:21.632Z,7.73
2019-03-01T05:23:25.915Z,13.17
2019-03-01T05:26:30.198Z,11.03
2019-03-01T05:29:34.499Z,4.90
2019-03-01T05:32:38.876Z,8.37
2019-03-01T05:35:43.347Z,7.70
2019-03-01T05:38:47.643Z,9.57
2019-03-01T05:41:52.069Z,8.87
2019-03-01T05:44:56.616Z,10.90
2019-03-01T05:48:00.892Z,7.63
2019-03-01T05:51:05.264Z,14.80
2019-03-01T05:54:09.520Z,9.27
2019-03-01T05:57:13.799Z,7.97
2019-03-01T06:00:18.153Z,8.40
2019-03-01T06:03:59.832Z,8.37
2019-03-01T06:07:39.019Z,10.27
2019-03-01T06:11:13.953Z,9.27
2019-03-01T06:14:52.723Z,12.03
2019-03-01T06:18:56.454Z,8.20
2019-03-01T06:22:23.902Z,13.90
2019-03-01T06:26:03.787Z,14.90
2019-03-01T06:29:16.448Z,10.73
2019-03-01T06:32:55.407Z,12.77
2019-03-01T06:36:20.815Z,8.90
2019-03-01T06:40:20.684Z,6.10
2019-03-01T06:44:21.041Z,11.10
2019-03-01T06:47:51.897Z,7.03
2019-03-01T06:51:00.011Z,11.37
2019-03-01T06:54:05.751Z,9.13
2019-03-01T06:57:10.212Z,8.90
2019-03-01T07:00:14.550Z,10.63
2019-03-01T07:03:19.001Z,10.00
2019-03-01T07:06:23.339Z,10.43
2019-03-01T07:09:27.628Z,9.77
2019-03-01T07:12:31.912Z,14.17
2019-03-01T07:15:38.453Z,10.60
2019-03-01T07:18:42.806Z,7.40
2019-03-01T07:21:49.308Z,10.53
2019-03-01T07:24:56.337Z,14.97
2019-03-01T07:28:00.634Z,13.20
2019-03-01T07:31:07.002Z,9.27
2019-03-01T07:34:10.955Z,10.33
2019-03-01T07:37:15.393Z,9.13
2019-03-01T07:40:19.802Z,10.97
2019-03-01T07:43:24.265Z,9.63
2019-03-01T07:46:28.551Z,12.90
2019-03-01T07:49:32.878Z,10.97
2019-03-01T07:52:37.312Z,16.53
2019-03-01T07:55:41.596Z,13.60
2019-03-01T07:58:45.901Z,12.17
2019-03-01T08:01:50.165Z,6.93
2019-03-01T08:04:54.483Z,12.57
2019-03-01T08:08:02.567Z,8.97
2019-03-01T08:11:04.950Z,7.60
2019-03-01T08:14:10.279Z,11.50
2019-03-01T08:17:14.933Z,8.80
2019-03-01T08:20:19.332Z,10.77
2019-03-01T08:23:26.114Z,14.40
2019-03-01T08:26:30.780Z,10.07
2019-03-01T08:29:36.548Z,10.43
2019-03-01T08:32:42.011Z,10.77
2019-03-01T08:35:46.399Z,13.33
2019-03-01T08:38:50.916Z,13.70
2019-03-01T08:42:00.248Z,11.97
2019-03-01T08:45:04.483Z,14.03
2019-03-01T08:48:08.811Z,9.27
2019-03-01T08:51:13.087Z,15.70
2019-03-01T08:54:17.407Z,7.20
2019-03-01T08:57:22.552Z,14.53
2019-03-01T09:00:29.851Z,13.63
2019-03-01T09:03:38.486Z,9.60
2019-03-01T09:06:42.767Z,9.73
2019-03-01T09:09:47.058Z,12.13
2019-03-01T09:12:51.392Z,17.17
2019-03-01T09:15:55.714Z,10.97
2019-03-01T09:19:00.909Z,15.47
2019-03-01T09:22:05.370Z,12.30
2019-03-01T09:25:10.807Z,10.53
2019-03-01T09:28:15.116Z,11.87
2019-03-01T09:31:21.537Z,11.97
2019-03-01T09:34:28.625Z,7.30
2019-03-01T09:37:32.472Z,12.07
2019-03-01T09:40:37.473Z,14.43
2019-03-01T09:43:41.762Z,11.40
2019-03-01T09:46:46.379Z,18.43
2019-03-01T09:49:52.419Z,12.50
2019-03-01T09:52:59.012Z,16.67
2019-03-01T09:56:02.776Z,19.90
2019-03-01T09:59:14.272Z,12.27
2019-03-01T10:02:18.672Z,13.30
2019-03-01T10:05:23.076Z,11.40
2019-03-01T10:08:27.482Z,10.83
2019-03-01T10:11:33.588Z,11.50
2019-03-01T10:14:37.922Z,14.47
2019-03-01T10:17:42.246Z,13.07
2019-03-01T10:20:49.130Z,13.30
2019-03-01T10:23:57.520Z,12.40
2019-03-01T10:27:03.042Z,14.00
2019-03-01T10:30:10.530Z,10.80
2019-03-01T10:33:15.258Z,9.80
2019-03-01T10:36:19.641Z,16.20
2019-03-01T10:39:23.926Z,16.50
2019-03-01T10:42:28.213Z,11.27
2019-03-01T10:45:32.497Z,15.27
2019-03-01T10:48:36.881Z,9.80
2019-03-01T10:51:41.194Z,12.87
2019-03-01T10:54:47.315Z,15.97
2019-03-01T10:57:51.599Z,15.27
2019-03-01T11:00:56.074Z,13.67
2019-03-01T11:04:00.384Z,12.37
2019-03-01T11:07:04.995Z,15.47
2019-03-01T11:10:10.756Z,15.40
2019-03-01T11:13:15.301Z,16.60
2019-03-01T11:16:19.578Z,14.13
2019-03-01T11:19:24.012Z,16.30
2019-03-01T11:22:28.385Z,12.23
2019-03-01T11:25:32.804Z,11.80
2019-03-01T11:28:37.125Z,11.20
2019-03-01T11:31:44.426Z,9.67
2019-03-01T11:34:48.717Z,12.70
2019-03-01T11:37:53.104Z,13.17
2019-03-01T11:41:00.461Z,12.33
2019-03-01T11:44:04.821Z,10.93
2019-03-01T11:47:09.119Z,13.97
2019-03-01T11:50:16.254Z,13.93
2019-03-01T11:53:20.744Z,10.90
2019-03-01T11:56:25.445Z,11.13
2019-03-01T11:59:29.720Z,8.63
2019-03-01T12:02:35.173Z,12.93
2019-03-01T12:05:39.467Z,10.43
2019-03-01T12:08:44.874Z,13.70
2019-03-01T12:11:49.167Z,8.50
2019-03-01T12:14:53.622Z,14.10
2019-03-01T12:17:57.923Z,11.33
2019-03-01T12:21:02.228Z,9.97
2019-03-01T12:24:07.955Z,12.37
2019-03-01T12:27:12.449Z,12.50
2019-03-01T12:30:18.750Z,9.00
2019-03-01T12:33:23.039Z,9.07
2019-03-01T12:36:27.443Z,21.73
2019-03-01T12:39:31.971Z,13.53
2019-03-01T12:42:36.271Z,10.43
2019-03-01T12:45:40.616Z,15.33
2019-03-01T12:48:44.919Z,8.67
2019-03-01T12:51:49.213Z,8.90
2019-03-01T12:54:54.470Z,10.90
2019-03-01T12:57:59.078Z,10.73
2019-03-01T13:01:03.369Z,10.33
2019-03-01T13:04:09.334Z,9.27
2019-03-01T13:07:14.036Z,11.90
2019-03-01T13:10:21.824Z,12.13
2019-03-01T13:13:26.150Z,15.07
2019-03-01T13:16:30.462Z,8.80
2019-03-01T13:19:34.752Z,18.33
2019-03-01T13:22:39.050Z,12.97
2019-03-01T13:25:44.219Z,13.50
2019-03-01T13:28:48.670Z,14.23
2019-03-01T13:31:52.973Z,9.93
2019-03-01T13:35:00.016Z,14.40
2019-03-01T13:38:06.956Z,15.53
2019-03-01T13:41:11.244Z,15.07
2019-03-01T13:44:18.540Z,16.50
2019-03-01T13:47:25.625Z,14.97
2019-03-01T13:50:30.002Z,13.37
2019-03-01T13:53:34.382Z,13.70
2019-03-01T13:56:41.485Z,17.00
2019-03-01T13:59:45.766Z,13.73
2019-03-01T14:02:50.283Z,9.37
2019-03-01T14:05:55.895Z,7.17
2019-03-01T14:09:02.817Z,10.83
2019-03-01T14:12:07.120Z,10.83
2019-03-01T14:15:13.665Z,17.87
2019-03-01T14:18:18.024Z,11.07
2019-03-01T14:21:22.324Z,12.97
2019-03-01T14:24:29.494Z,10.40
2019-03-01T14:27:32.635Z,12.90
2019-03-01T14:30:37.274Z,9.27
2019-03-01T14:33:43.543Z,10.97
2019-03-01T14:36:47.691Z,11.87
2019-03-01T14:39:52.013Z,11.90
2019-03-01T14:42:56.339Z,6.17
2019-03-01T14:46:00.648Z,7.60
2019-03-01T14:49:04.935Z,14.93
2019-03-01T14:52:09.295Z,14.30
2019-03-01T14:55:19.791Z,14.10
2019-03-01T14:58:34.349Z,16.47
2019-03-01T15:02:19.107Z,8.83
2019-03-01T15:05:23.421Z,11.57
2019-03-01T15:08:27.701Z,12.13
2019-03-01T15:11:32.522Z,7.93
2019-03-01T15:14:37.007Z,13.93
2019-03-01T15:17:41.596Z,8.43
2019-03-01T15:20:45.998Z,6.97
2019-03-01T15:23:50.378Z,8.80
2019-03-01T15:26:54.513Z,13.70
2019-03-01T15:29:58.997Z,10.60
2019-03-01T15:33:03.289Z,10.87
2019-03-01T15:36:08.220Z,10.40
2019-03-01T15:39:12.579Z,9.10
2019-03-01T15:42:17.623Z,13.50
2019-03-01T15:45:23.167Z,8.10
2019-03-01T15:48:30.530Z,10.93
2019-03-01T15:51:38.130Z,16.10
2019-03-01T15:54:40.899Z,13.47
2019-03-01T15:57:45.296Z,11.27
2019-03-01T16:00:49.580Z,7.07
2019-03-01T16:03:54.152Z,12.43
2019-03-01T16:06:59.919Z,22.17
2019-03-01T16:10:04.770Z,17.17
2019-03-01T16:13:12.250Z,9.47
2019-03-01T16:16:15.201Z,9.87
2019-03-01T16:19:19.558Z,12.17
2019-03-01T16:22:24.076Z,10.50
2019-03-01T16:25:28.504Z,11.77
2019-03-01T16:28:32.875Z,11.70
2019-03-01T16:31:37.159Z,11.60
2019-03-01T16:34:42.396Z,13.93
2019-03-01T16:37:48.487Z,10.57
2019-03-01T16:40:52.841Z,10.27
2019-03-01T16:43:57.172Z,15.57
2019-03-01T16:47:03.566Z,9.07
2019-03-01T16:50:10.056Z,7.77
2019-03-01T16:53:17.145Z,10.10
2019-03-01T16:56:21.427Z,7.70
2019-03-01T16:59:25.700Z,11.90
2019-03-01T17:02:32.032Z,10.83
2019-03-01T17:05:38.713Z,9.07
2019-03-01T17:08:43.658Z,14.30
2019-03-01T17:11:53.801Z,10.23
2019-03-01T17:14:58.160Z,12.53
2019-03-01T17:18:02.443Z,16.43
2019-03-01T17:21:08.628Z,11.60
2019-03-01T17:24:15.537Z,10.83
2019-03-01T17:27:19.239Z,8.40
2019-03-01T17:30:23.727Z,13.57
2019-03-01T17:33:28.166Z,9.33
2019-03-01T17:36:32.476Z,9.00
2019-03-01T17:39:36.807Z,9.70
2019-03-01T17:42:41.781Z,11.07
2019-03-01T17:45:46.069Z,9.37
2019-03-01T17:48:50.353Z,8.27
2019-03-01T17:51:56.487Z,20.40
2019-03-01T17:55:01.396Z,24.90
2019-03-01T17:58:08.830Z,13.67
2019-03-01T18:01:12.778Z,19.63
2019-03-01T18:04:17.183Z,13.30
2019-03-01T18:07:23.692Z,12.47
2019-03-01T18:10:28.705Z,9.77
2019-03-01T18:13:33.809Z,14.33
2019-03-01T18:16:38.356Z,11.70
2019-03-01T18:19:42.904Z,17.23
2019-03-01T18:22:47.338Z,12.83
2019-03-01T18:25:51.793Z,7.90
2019-03-01T18:28:56.182Z,9.50
2019-03-01T18:32:00.674Z,6.77
2019-03-01T18:35:08.008Z,14.37
2019-03-01T18:38:14.469Z,11.23
2019-03-01T18:41:18.897Z,10.17
2019-03-01T18:44:25.898Z,9.33
2019-03-01T18:47:30.737Z,11.73
2019-03-01T18:50:35.733Z,16.50
2019-03-01T18:53:40.256Z,14.33
2019-03-01T18:56:44.692Z,11.40
2019-03-01T18:59:49.174Z,7.53
2019-03-01T19:02:53.497Z,13.33
2019-03-01T19:05:57.931Z,11.47
2019-03-01T19:09:06.043Z,12.73
2019-03-01T19:12:12.537Z,6.93
2019-03-01T19:15:16.916Z,11.23
2019-03-01T19:18:21.528Z,12.63
2019-03-01T19:21:25.967Z,14.03
2019-03-01T19:24:30.498Z,7.47
2019-03-01T19:27:35.074Z,12.50
2019-03-01T19:30:39.895Z,15.20
2019-03-01T19:33:44.575Z,8.83
2019-03-01T19:36:49.088Z,11.97
2019-03-01T19:39:53.776Z,14.43
2019-03-01T19:42:58.561Z,13.80
2019-03-01T19:46:03.165Z,13.37
2019-03-01T19:49:12.812Z,10.17
2019-03-01T19:52:16.313Z,11.70
2019-03-01T19:55:21.343Z,11.47
2019-03-01T19:58:28.205Z,13.57
2019-03-01T20:01:33.179Z,16.90
2019-03-01T20:04:38.001Z,12.70
2019-03-01T20:07:42.881Z,20.50
2019-03-01T20:10:51.050Z,35.73
2019-03-01T20:13:56.834Z,24.17
2019-03-01T20:17:02.567Z,18.17
2019-03-01T20:20:08.524Z,16.30
2019-03-01T20:23:13.148Z,24.40
2019-03-01T20:26:18.104Z,25.20
2019-03-01T20:29:22.638Z,22.60
2019-03-01T20:32:27.324Z,16.03
2019-03-01T20:35:31.947Z,12.63
2019-03-01T20:38:40.047Z,14.53
2019-03-01T20:41:46.499Z,14.40
2019-03-01T20:44:53.109Z,11.90
2019-03-01T20:47:57.629Z,11.00
2019-03-01T20:51:02.299Z,10.53
2019-03-01T20:54:07.186Z,14.87
2019-03-01T20:57:11.963Z,15.37
2019-03-01T21:00:17.382Z,12.73
2019-03-01T21:03:24.891Z,12.17
2019-03-01T21:06:29.566Z,16.50
2019-03-01T21:09:34.354Z,12.00
2019-03-01T21:12:38.870Z,14.77
2019-03-01T21:15:43.700Z,13.33
2019-03-01T21:18:48.413Z,15.80
2019-03-01T21:21:52.953Z,18.07
2019-03-01T21:24:59.339Z,12.30
2019-03-01T21:28:04.133Z,12.53
2019-03-01T21:31:11.025Z,17.77
2019-03-01T21:34:16.568Z,14.80
2019-03-01T21:37:21.205Z,15.77
2019-03-01T21:40:25.788Z,12.07
2019-03-01T21:43:33.344Z,16.67
2019-03-01T21:46:36.773Z,17.53
2019-03-01T21:49:42.647Z,16.57
2019-03-01T21:52:46.980Z,12.80
2019-03-01T21:55:54.252Z,15.33
2019-03-01T21:58:58.550Z,16.07
2019-03-01T22:02:02.915Z,13.37
2019-03-01T22:05:13.281Z,15.50
2019-03-01T22:08:16.497Z,15.50
2019-03-01T22:11:21.062Z,17.70
2019-03-01T22:14:27.258Z,21.60
2019-03-01T22:17:31.562Z,12.40
2019-03-01T22:20:35.922Z,14.23
2019-03-01T22:23:40.245Z,18.07
2019-03-01T22:26:46.703Z,20.60
2019-03-01T22:29:50.676Z,14.03
2019-03-01T22:32:55.235Z,21.23
2019-03-01T22:35:59.700Z,16.80
2019-03-01T22:39:04.791Z,19.57
2019-03-01T22:42:11.434Z,17.47
2019-03-01T22:45:15.797Z,17.03
2019-03-01T22:48:24.094Z,22.37
2019-03-01T22:51:28.703Z,19.67
2019-03-01T22:54:33.012Z,17.43
2019-03-01T22:57:37.341Z,17.73
2019-03-01T23:01:10.344Z,19.37
2019-03-01T23:04:14.887Z,17.53
2019-03-01T23:07:19.256Z,17.17
2019-03-01T23:10:23.539Z,19.37
2019-03-01T23:13:27.841Z,17.50
2019-03-01T23:16:32.172Z,22.13
2019-03-01T23:19:36.460Z,19.80
2019-03-01T23:22:42.672Z,17.77
2019-03-01T23:25:47.673Z,16.77
2019-03-01T23:28:52.199Z,17.00
2019-03-01T23:31:58.627Z,19.13
2019-03-01T23:35:02.923Z,19.57
2019-03-01T23:38:07.323Z,20.20
2019-03-01T23:41:12.710Z,22.27
2019-03-01T23:44:17.229Z,20.57
2019-03-01T23:47:23.002Z,22.80
2019-03-01T23:50:27.323Z,23.33
2019-03-01T23:53:34.093Z,16.00
2019-03-01T23:56:37.641Z,20.87
2019-03-01T23:59:41.932Z,19.30
